Time;durP1;ratioP1;P1;durP2;ratioP2;P2;SDS_P1;SDS_P2;PMS_P1;PMS_P2;Temp;Humidity;BMP_temperature;BMP_pressure;BME280_temperature;BME280_humidity;BME280_pressure;Samples;Min_cycle;Max_cycle;Signal;HPM_P1;HPM_P2
2022/08/11 00:05:00;;;;;;;1.25;0.82;;;21.60;72.90;;;;;;10426732;28;20045;-89
2022/08/11 00:10:02;;;;;;;1.40;0.70;;;21.50;72.80;;;;;;10429840;28;20044;-89
2022/08/11 00:15:05;;;;;;;1.42;0.77;;;21.50;73.00;;;;;;10453038;28;20041;-89
2022/08/11 00:20:09;;;;;;;2.22;0.70;;;21.50;73.70;;;;;;10463110;28;20099;-89
2022/08/11 00:25:19;;;;;;;3.42;0.70;;;21.40;73.50;;;;;;10444490;28;20059;-89
2022/08/11 00:30:21;;;;;;;5.80;0.93;;;21.40;74.00;;;;;;10457811;28;20066;-89
2022/08/11 00:35:26;;;;;;;2.47;0.80;;;21.20;74.50;;;;;;10441330;28;20047;-89
2022/08/11 00:41:08;;;;;;;1.92;1.00;;;21.70;75.60;;;;;;10453793;28;20052;-89
2022/08/11 00:46:26;;;;;;;1.30;0.80;;;21.00;75.70;;;;;;10453427;28;20139;-88
2022/08/11 00:51:51;;;;;;;3.47;1.02;;;21.00;75.90;;;;;;10451730;28;20041;-89
2022/08/11 00:57:28;;;;;;;2.00;0.88;;;20.90;75.80;;;;;;10458660;28;20532;-89
2022/08/11 01:02:46;;;;;;;1.50;0.70;;;20.70;76.50;;;;;;10462531;28;20044;-89
2022/08/11 01:08:18;;;;;;;9.13;1.10;;;20.50;77.20;;;;;;10445922;28;20053;-89
2022/08/11 01:13:57;;;;;;;2.88;0.73;;;20.40;77.70;;;;;;10460703;28;20049;-89
2022/08/11 01:19:34;;;;;;;1.45;0.82;;;20.30;78.70;;;;;;10463413;28;20093;-89
2022/08/11 01:25:26;;;;;;;2.00;0.90;;;20.20;80.70;;;;;;10424735;28;20053;-89
2022/08/11 01:31:15;;;;;;;2.80;0.63;;;20.00;81.40;;;;;;10442277;28;20278;-89
2022/08/11 01:36:29;;;;;;;2.05;0.75;;;19.90;82.30;;;;;;10357563;28;20119;-89
2022/08/11 01:47:52;;;;;;;1.73;0.80;;;19.60;84.20;;;;;;10434938;28;20985;-88
2022/08/11 01:53:13;;;;;;;2.13;0.88;;;19.40;83.60;;;;;;10434782;28;20052;-89
2022/08/11 01:58:32;;;;;;;7.15;1.00;;;19.40;85.90;;;;;;10445953;28;20053;-89
2022/08/11 02:03:50;;;;;;;4.38;0.80;;;19.30;85.80;;;;;;10455486;28;20078;-89
2022/08/11 02:09:24;;;;;;;6.78;0.82;;;19.30;86.20;;;;;;10434576;28;20080;-89
2022/08/11 02:15:05;;;;;;;4.30;0.90;;;19.00;86.50;;;;;;10453845;28;20055;-89
2022/08/11 02:26:26;;;;;;;3.05;1.08;;;19.00;86.80;;;;;;10457849;28;20126;-89
2022/08/11 02:37:23;;;;;;;3.80;1.00;;;18.80;87.60;;;;;;10439885;28;20048;-89
2022/08/11 02:42:29;;;;;;;3.63;1.00;;;18.80;88.70;;;;;;10463968;28;20056;-89
2022/08/11 02:53:56;;;;;;;4.85;1.00;;;18.90;89.40;;;;;;10455120;28;20076;-89
2022/08/11 02:59:49;;;;;;;2.60;1.17;;;18.60;90.20;;;;;;10453749;28;20049;-89
2022/08/11 03:04:57;;;;;;;3.58;1.23;;;18.40;90.50;;;;;;10424120;28;20108;-89
2022/08/11 03:10:11;;;;;;;5.35;1.52;;;18.40;91.20;;;;;;10445355;28;20622;-89
2022/08/11 03:21:20;;;;;;;2.70;1.13;;;18.20;91.50;;;;;;10446654;28;20048;-89
2022/08/11 03:27:03;;;;;;;4.68;1.38;;;18.10;92.30;;;;;;10432199;28;20045;-89
2022/08/11 03:32:29;;;;;;;2.25;1.15;;;18.00;92.80;;;;;;10444747;28;20418;-89
2022/08/11 03:37:55;;;;;;;1.42;1.00;;;17.90;93.70;;;;;;10423106;28;20104;-89
2022/08/11 03:43:06;;;;;;;1.05;0.90;;;17.80;94.10;;;;;;10447753;28;20045;-89
2022/08/11 03:48:28;;;;;;;4.57;1.27;;;17.70;94.70;;;;;;10458889;28;20052;-88
2022/08/11 03:54:02;;;;;;;2.53;1.10;;;17.60;95.20;;;;;;10452317;28;20056;-88
2022/08/11 03:59:16;;;;;;;3.30;1.10;;;17.50;95.60;;;;;;10450806;28;20049;-89
2022/08/11 04:04:47;;;;;;;3.80;1.20;;;17.40;95.70;;;;;;10470628;28;20063;-89
2022/08/11 04:10:22;;;;;;;2.92;1.10;;;17.40;95.50;;;;;;10463832;28;20061;-87
2022/08/11 04:16:03;;;;;;;4.22;1.17;;;17.40;95.50;;;;;;10462014;28;20052;-88
2022/08/11 04:21:38;;;;;;;1.65;1.00;;;17.40;95.70;;;;;;10436110;28;20443;-87
2022/08/11 04:26:54;;;;;;;4.10;1.95;;;17.40;95.90;;;;;;10460113;28;20052;-88
2022/08/11 04:32:18;;;;;;;4.57;1.25;;;17.40;96.50;;;;;;10447762;28;20053;-88
2022/08/11 04:37:53;;;;;;;6.55;1.30;;;17.40;96.40;;;;;;10463203;28;20060;-88
2022/08/11 04:43:26;;;;;;;1.52;0.90;;;17.30;96.90;;;;;;10454409;28;20060;-87
2022/08/11 05:06:05;;;;;;;1.80;0.90;;;17.10;98.50;;;;;;10461453;28;20055;-88
2022/08/11 05:11:51;;;;;;;3.47;1.20;;;17.20;98.60;;;;;;10429546;28;20041;-89
2022/08/11 06:01:05;;;;;;;3.38;0.80;;;18.20;99.10;;;;;;10468179;28;20075;-87
2022/08/11 06:06:09;;;;;;;2.08;0.85;;;18.50;99.00;;;;;;10435205;28;20056;-90
2022/08/11 06:11:12;;;;;;;1.88;0.98;;;19.70;98.60;;;;;;10437851;28;20136;-93
2022/08/11 06:16:21;;;;;;;1.58;0.98;;;18.80;98.20;;;;;;10415127;28;20055;-93
2022/08/11 06:21:24;;;;;;;3.30;0.90;;;19.10;97.90;;;;;;10461135;28;20044;-90
2022/08/11 06:26:26;;;;;;;2.25;0.90;;;20.20;97.50;;;;;;10433510;28;20495;-91
2022/08/11 06:31:30;;;;;;;8.75;0.98;;;19.50;97.40;;;;;;10426512;28;20140;-91
2022/08/11 06:36:56;;;;;;;2.78;1.20;;;19.90;97.50;;;;;;10410811;28;20127;-91
2022/08/11 06:42:06;;;;;;;3.13;0.77;;;19.90;97.40;;;;;;10434741;28;20055;-88
2022/08/11 06:47:15;;;;;;;1.92;0.70;;;20.20;97.50;;;;;;10426999;28;20513;-88
2022/08/11 06:52:17;;;;;;;4.63;1.00;;;20.50;95.90;;;;;;10452006;28;20044;-88
2022/08/11 07:03:07;;;;;;;1.25;0.68;;;21.00;94.80;;;;;;10430053;28;20421;-90
2022/08/11 07:30:39;;;;;;;2.53;0.70;;;22.40;90.70;;;;;;10467894;28;20487;-89
2022/08/11 07:35:44;;;;;;;3.72;0.73;;;22.60;90.30;;;;;;10453016;28;20056;-91
2022/08/11 07:40:47;;;;;;;5.95;0.70;;;22.80;90.80;;;;;;10435157;28;20053;-90
2022/08/11 07:56:35;;;;;;;1.17;0.73;;;23.70;88.90;;;;;;10464446;28;20041;-90
2022/08/11 08:18:04;;;;;;;4.43;0.57;;;24.00;87.30;;;;;;10465702;28;20467;-90
2022/08/11 08:23:33;;;;;;;2.25;0.70;;;24.20;86.40;;;;;;10434788;28;20092;-91
2022/08/11 08:28:35;;;;;;;2.80;0.80;;;24.40;85.00;;;;;;10438384;28;20048;-90
2022/08/11 08:33:40;;;;;;;3.20;0.90;;;24.40;84.00;;;;;;10427423;28;20044;-89
2022/08/11 08:38:52;;;;;;;2.00;0.70;;;24.70;84.30;;;;;;10450742;28;20557;-90
2022/08/11 08:43:58;;;;;;;4.13;0.90;;;24.90;83.40;;;;;;10471354;28;20044;-89
2022/08/11 08:49:34;;;;;;;4.97;0.70;;;25.10;82.60;;;;;;10467639;28;20048;-89
2022/08/11 08:54:43;;;;;;;4.20;0.73;;;25.30;81.60;;;;;;10428059;28;20048;-89
2022/08/11 08:59:48;;;;;;;3.38;0.80;;;25.40;80.80;;;;;;10450573;28;20048;-91
2022/08/11 09:04:52;;;;;;;2.25;0.60;;;25.70;78.60;;;;;;10448847;28;20049;-91
2022/08/11 09:09:57;;;;;;;8.00;0.80;;;25.90;77.80;;;;;;10435448;28;20110;-90
2022/08/11 09:15:04;;;;;;;3.95;1.15;;;26.10;77.50;;;;;;10462627;28;20071;-90
2022/08/11 09:20:19;;;;;;;1.10;0.60;;;26.30;75.40;;;;;;10466149;28;20406;-89
2022/08/11 09:30:52;;;;;;;1.77;0.50;;;26.90;73.70;;;;;;10465989;28;20436;-89
2022/08/11 09:35:56;;;;;;;4.03;0.50;;;27.50;73.30;;;;;;10384923;28;20048;-90
2022/08/11 09:41:01;;;;;;;3.90;0.70;;;27.20;72.40;;;;;;10417961;28;20063;-90
2022/08/11 09:46:05;;;;;;;3.78;0.50;;;27.40;71.80;;;;;;10446147;28;20709;-89
2022/08/11 09:51:09;;;;;;;1.23;0.50;;;27.60;68.60;;;;;;10421732;28;20369;-91
2022/08/11 10:01:58;;;;;;;1.38;0.50;;;28.00;66.00;;;;;;10405208;28;21562;-90
2022/08/11 10:07:03;;;;;;;4.05;0.52;;;28.00;66.00;;;;;;10449685;28;20048;-91
2022/08/11 10:12:29;;;;;;;4.72;0.70;;;28.00;65.10;;;;;;10445296;28;20053;-90
2022/08/11 10:17:34;;;;;;;0.50;0.40;;;27.90;65.10;;;;;;10447034;28;20330;-90
2022/08/11 10:28:08;;;;;;;3.22;0.70;;;29.00;64.10;;;;;;10450602;28;20044;-90
2022/08/11 10:39:02;;;;;;;1.92;0.47;;;29.10;63.00;;;;;;10451089;28;20043;-88
2022/08/11 10:44:08;;;;;;;3.42;0.52;;;29.70;63.40;;;;;;10459747;28;20056;-91
2022/08/11 10:49:10;;;;;;;2.15;0.40;;;29.70;62.40;;;;;;10425960;28;20605;-87
2022/08/11 10:59:35;;;;;;;3.55;2.00;;;30.30;61.40;;;;;;10439292;28;20048;-87
2022/08/11 11:04:51;;;;;;;3.75;0.43;;;30.50;60.40;;;;;;10443228;28;20053;-87
2022/08/11 11:10:03;;;;;;;0.85;0.43;;;30.10;58.40;;;;;;10451536;28;20127;-86
2022/08/11 11:20:29;;;;;;;2.70;0.60;;;30.60;58.50;;;;;;10488564;28;20051;-86
2022/08/11 11:26:18;;;;;;;3.42;0.63;;;31.10;59.80;;;;;;10461864;28;20094;-87
2022/08/11 11:31:31;;;;;;;2.78;0.47;;;31.10;58.00;;;;;;10491676;28;20055;-87
2022/08/11 11:36:52;;;;;;;1.05;0.40;;;31.40;57.90;;;;;;10491320;28;20043;-87
2022/08/11 11:41:57;;;;;;;0.98;0.60;;;31.40;55.30;;;;;;10454937;28;20055;-87
2022/08/11 11:47:00;;;;;;;1.13;0.57;;;31.80;57.40;;;;;;10454786;28;20049;-87
2022/08/11 11:52:03;;;;;;;4.82;0.50;;;31.90;55.50;;;;;;10463906;28;20040;-87
2022/08/11 12:02:27;;;;;;;2.78;0.40;;;32.00;56.20;;;;;;10458206;28;20088;-87
2022/08/11 12:18:26;;;;;;;6.32;0.70;;;32.50;54.70;;;;;;10453447;28;21495;-89
2022/08/11 12:28:50;;;;;;;1.23;0.50;;;32.60;55.30;;;;;;10472903;28;20052;-89
2022/08/11 12:33:54;;;;;;;0.70;0.40;;;32.50;53.30;;;;;;10437857;28;20060;-90
2022/08/11 12:38:58;;;;;;;0.82;0.47;;;32.60;53.10;;;;;;10432473;28;20061;-90
2022/08/11 13:06:28;;;;;;;1.33;0.40;;;32.60;51.30;;;;;;10429807;28;20088;-90
2022/08/11 13:22:23;;;;;;;2.65;0.50;;;32.90;51.40;;;;;;10431198;28;20151;-90
2022/08/11 13:27:25;;;;;;;1.48;0.50;;;32.80;50.50;;;;;;10432803;28;20104;-89
2022/08/11 13:32:28;;;;;;;4.25;0.50;;;32.60;51.20;;;;;;10427527;28;20049;-89
2022/08/11 13:37:33;;;;;;;2.15;0.40;;;32.90;50.40;;;;;;10419039;28;20045;-90
2022/08/11 13:42:57;;;;;;;2.15;0.50;;;33.10;49.90;;;;;;10413117;28;20052;-90
2022/08/11 13:48:02;;;;;;;2.10;0.50;;;33.20;49.70;;;;;;10408607;28;20515;-90
2022/08/11 13:53:04;;;;;;;2.17;0.57;;;33.40;49.60;;;;;;10421135;28;20042;-89
2022/08/11 13:58:09;;;;;;;1.92;0.50;;;33.00;49.90;;;;;;10433690;28;20474;-88
2022/08/11 14:03:32;;;;;;;1.85;0.60;;;33.20;50.50;;;;;;10437838;28;20099;-89
2022/08/11 14:08:54;;;;;;;0.82;0.70;;;33.20;49.00;;;;;;10454160;28;20059;-89
2022/08/11 14:13:57;;;;;;;0.68;0.50;;;33.40;50.00;;;;;;10439701;28;20132;-89
2022/08/11 14:19:07;;;;;;;0.95;0.50;;;33.90;49.10;;;;;;10448270;28;20048;-89
2022/08/11 14:24:11;;;;;;;1.00;0.50;;;34.20;48.10;;;;;;10441613;28;20044;-88
2022/08/11 14:29:14;;;;;;;;;;;34.50;48.40;;;;;;10447119;28;20024;-89
2022/08/11 14:34:22;;;;;;;1.42;0.50;;;34.80;49.20;;;;;;10442964;28;19920;-89
2022/08/11 14:39:29;;;;;;;2.95;0.40;;;34.80;48.70;;;;;;10451555;28;20044;-89
2022/08/11 14:49:58;;;;;;;0.88;0.40;;;35.40;50.00;;;;;;10462915;28;20052;-88
2022/08/11 15:00:35;;;;;;;1.10;0.50;;;35.40;49.30;;;;;;10462996;28;20127;-89
2022/08/11 15:05:43;;;;;;;5.60;0.50;;;35.60;49.30;;;;;;10452093;28;20098;-88
2022/08/11 15:10:58;;;;;;;2.78;0.50;;;35.80;50.90;;;;;;10460913;28;20103;-89
2022/08/11 15:37:26;;;;;;;4.18;0.73;;;35.80;52.00;;;;;;10459735;28;20055;-89
2022/08/11 15:47:58;;;;;;;6.75;0.85;;;35.50;53.10;;;;;;10442877;28;20088;-88
2022/08/11 15:53:24;;;;;;;1.73;0.52;;;35.50;54.00;;;;;;10450778;28;20068;-88
2022/08/11 16:04:17;;;;;;;1.58;0.50;;;35.30;53.20;;;;;;10459023;28;20044;-88
2022/08/11 16:09:26;;;;;;;0.60;0.47;;;35.10;53.00;;;;;;10451376;28;20032;-88
2022/08/11 16:19:58;;;;;;;2.50;0.32;;;35.40;53.50;;;;;;10467294;28;20052;-88
2022/08/11 16:25:05;;;;;;;0.88;0.60;;;34.80;53.10;;;;;;10444121;28;20478;-88
2022/08/11 16:30:28;;;;;;;1.48;0.50;;;34.50;53.30;;;;;;10445707;28;20059;-88
2022/08/11 16:40:58;;;;;;;3.58;0.60;;;34.10;53.40;;;;;;10441842;28;20088;-89
2022/08/11 16:51:23;;;;;;;4.65;0.50;;;34.20;53.60;;;;;;10445644;28;20049;-88
2022/08/11 16:56:42;;;;;;;1.08;0.70;;;34.20;54.30;;;;;;10442118;28;20107;-88
2022/08/11 17:01:51;;;;;;;1.23;0.60;;;34.00;53.80;;;;;;10467532;28;20048;-88
2022/08/11 17:18:02;;;;;;;1.15;0.93;;;34.20;52.80;;;;;;10452960;28;20059;-88
2022/08/11 17:28:28;;;;;;;10.52;0.60;;;33.90;52.70;;;;;;10462480;28;20028;-88
2022/08/11 17:38:52;;;;;;;3.63;0.70;;;33.40;52.90;;;;;;10454150;28;20048;-88
2022/08/11 17:49:21;;;;;;;1.85;0.50;;;33.20;53.50;;;;;;10473226;28;20048;-88
2022/08/11 17:59:54;;;;;;;0.90;0.40;;;32.90;53.90;;;;;;10466284;28;20048;-88
2022/08/11 18:04:56;;;;;;;1.33;0.63;;;32.60;53.70;;;;;;10457092;28;20107;-88
